Latest Weather Observations for Aireys Inlet

IDV60801

Issued at 8:02 pm EST Sunday 24 September 2017 (issued every 30 minutes, with the page automatically refreshed every 10 minutes)

About weather observations | Map of weather stations | Latest weather observations for VIC | Other Formats
Station Details ID: 090180 Name: AIREYS INLET Lat: -38.46 Lon: 144.09 Height: 105.0 m
Data from the previous 72 hours. | See also: Recent months at Aireys Inlet
Date/Time
EST
Temp
°C
App
Temp
°C
Dew
Point
°C
Rel
Hum
%
Delta-T
°C
Wind Press
QNH
hPa
Press
MSL
hPa
Rain since
9am
mm
Dir  Spd
km/h
Gust
km/h
Spd
kts
Gust
kts
24/08:00pm 11.3 3.2 9.9 91 0.7 NW 43 65 23 35 - - 3.0
24/07:30pm 12.4 2.2 8.7 78 1.9 NW 52 76 28 41 - - 1.8
24/07:00pm 12.3 4.2 8.6 78 1.8 NW 41 59 22 32 - - 1.8
24/06:30pm 12.7 4.6 8.8 77 2.0 NNW 41 61 22 33 - - 1.8
24/06:00pm 12.7 3.7 8.8 77 2.0 NW 46 69 25 37 - - 1.8
24/05:30pm 13.1 4.4 8.6 74 2.3 NW 44 63 24 34 - - 1.8
24/05:00pm 12.4 2.7 9.1 80 1.7 NW 50 76 27 41 - - 1.8
24/04:30pm 12.1 3.7 9.8 86 1.2 NW 44 72 24 39 - - 1.8
24/04:20pm 11.8 2.1 9.2 84 1.3 NW 50 89 27 48 - - 1.4
24/04:12pm 13.1 3.2 8.2 72 2.4 NW 50 89 27 48 - - 1.0
24/04:00pm 12.9 4.8 8.6 75 2.2 NW 41 67 22 36 - - 1.0
24/03:30pm 12.7 5.2 9.3 80 1.7 NW 39 67 21 36 - - 0.8
24/03:00pm 13.2 5.8 9.8 80 1.8 NNW 39 61 21 33 - - 0.8
24/02:33pm 12.3 5.8 10.5 89 0.9 NW 35 54 19 29 - - 0.8
24/02:30pm 11.6 4.4 9.3 86 1.2 NW 37 54 20 29 - - 0.8
24/02:00pm 14.0 3.6 7.8 66 3.1 NW 52 76 28 41 - - 0.0
24/01:43pm 15.5 5.4 7.5 59 4.0 NW 50 95 27 51 - - 0.0
24/01:30pm 14.4 5.1 7.7 64 3.3 NW 46 72 25 39 - - 0.0
24/01:00pm 13.7 3.9 8.5 71 2.6 NW 50 82 27 44 - - 0.0
24/12:30pm 14.9 4.6 6.5 57 4.1 NW 50 80 27 43 - - 0.0
24/12:00pm 15.3 5.1 6.8 57 4.2 NW 50 76 27 41 - - 0.0
24/11:30am 14.5 4.9 6.3 58 4.0 NW 46 72 25 39 - - 0.0
24/11:00am 14.0 3.9 7.3 64 3.3 NW 50 78 27 42 - - 0.0
24/10:30am 14.0 5.0 7.1 63 3.4 NW 44 74 24 40 - - 0.0
24/10:00am 13.3 4.8 7.1 66 3.0 NW 41 69 22 37 - - 0.0
24/09:30am 12.9 4.6 7.6 70 2.6 NW 41 72 22 39 - - 0.0
24/09:24am 12.7 5.4 7.2 69 2.7 NW 35 72 19 39 - - 0.0
24/09:05am 12.3 5.6 7.4 72 2.4 NW 32 52 17 28 - - 0.0
24/09:00am 12.1 5.8 7.2 72 2.4 NW 30 46 16 25 - - 3.0
24/08:30am 11.3 4.5 7.6 78 1.8 NW 33 57 18 31 - - 3.0
24/08:05am 10.5 4.3 7.9 84 1.3 NW 30 50 16 27 - - 3.0
24/08:00am 10.4 3.7 8.0 85 1.2 NW 33 50 18 27 - - 3.0
24/07:47am 9.8 4.0 7.9 88 0.9 NW 28 46 15 25 - - 3.0
24/07:30am 9.3 4.7 8.1 92 0.6 NW 22 33 12 18 - - 3.0
24/07:00am 9.3 3.5 7.9 91 0.7 NW 28 43 15 23 - - 2.8
24/06:37am 9.4 3.6 8.0 91 0.7 WNW 28 50 15 27 - - 1.8
24/06:30am 9.5 4.1 8.1 91 0.7 WNW 26 43 14 23 - - 1.6
24/06:00am 9.8 4.1 8.4 91 0.7 NW 28 43 15 23 - - 1.2
24/05:30am 10.3 4.3 8.6 89 0.8 NW 30 43 16 23 - - 0.8
24/05:15am 10.8 5.1 8.2 84 1.3 NW 28 48 15 26 - - 0.6
24/05:00am 11.1 5.2 7.6 79 1.7 NW 28 39 15 21 - - 0.6
24/04:30am 11.2 4.5 7.5 78 1.8 NW 32 43 17 23 - - 0.6
24/04:00am 11.6 4.0 7.5 76 2.0 NW 37 59 20 32 - - 0.6
24/03:30am 11.6 2.9 7.9 78 1.8 NW 43 63 23 34 - - 0.6
24/03:00am 11.7 2.5 8.0 78 1.8 NW 46 69 25 37 - - 0.6
24/02:30am 12.1 2.1 7.8 75 2.1 NW 50 76 27 41 - - 0.6
24/02:00am 12.4 2.8 8.1 75 2.1 NW 48 70 26 38 - - 0.6
24/01:30am 12.6 4.0 8.3 75 2.1 NW 43 70 23 38 - - 0.6
24/01:00am 12.8 3.6 8.1 73 2.3 NW 46 69 25 37 - - 0.6
24/12:30am 13.2 3.6 7.9 70 2.6 NW 48 76 26 41 - - 0.6
24/12:00am 13.2 4.7 8.5 73 2.4 NW 43 70 23 38 - - 0.6
 
Date/Time
EST
Temp
°C
App
Temp
°C
Dew
Point
°C
Rel
Hum
%
Delta-T
°C
Wind Press
QNH
hPa
Press
MSL
hPa
Rain since
9am
mm
Dir  Spd
km/h
Gust
km/h
Spd
kts
Gust
kts
23/11:30pm 13.4 5.0 8.9 74 2.3 NW 43 74 23 40 - - 0.6
23/11:05pm 13.4 5.7 8.7 73 2.4 NW 39 65 21 35 - - 0.6
23/11:00pm 13.4 6.1 8.7 73 2.4 NW 37 54 20 29 - - 0.6
23/10:30pm 13.6 6.3 8.7 72 2.5 NW 37 59 20 32 - - 0.6
23/10:01pm 13.8 7.5 9.8 77 2.1 NW 33 61 18 33 - - 0.6
23/10:00pm 13.8 7.7 9.8 77 2.1 NW 32 46 17 25 - - 0.6
23/09:37pm 14.0 7.5 10.4 79 1.9 NW 35 54 19 29 - - 0.6
23/09:30pm 14.1 7.6 10.3 78 2.0 NW 35 54 19 29 - - 0.6
23/09:00pm 14.3 7.9 10.7 79 1.9 WNW 35 54 19 29 - - 0.6
23/08:47pm 14.2 7.9 11.0 81 1.7 WNW 35 57 19 31 - - 0.6
23/08:30pm 14.1 8.2 11.1 82 1.6 NW 33 50 18 27 - - 0.6
23/08:08pm 13.8 9.0 11.5 86 1.2 NW 28 46 15 25 - - 0.6
23/08:00pm 13.6 9.1 11.5 87 1.1 NW 26 39 14 21 - - 0.6
23/07:30pm 13.5 8.6 11.2 86 1.2 WNW 28 46 15 25 - - 0.6
23/07:00pm 13.6 7.9 11.1 85 1.3 WNW 32 50 17 27 - - 0.6
23/06:50pm 13.4 7.5 11.1 86 1.2 WNW 33 56 18 30 - - 0.6
23/06:30pm 13.3 7.4 11.0 86 1.2 WNW 33 50 18 27 - - 0.6
23/06:04pm 14.3 7.6 9.7 74 2.4 W 35 54 19 29 - - 0.2
23/06:00pm 14.3 7.2 9.7 74 2.4 W 37 54 20 29 - - 0.2
23/05:30pm 14.0 7.5 10.2 78 2.0 W 35 57 19 31 - - 0.2
23/05:00pm 16.1 10.4 8.3 60 4.0 W 28 50 15 27 - - 0.0
23/04:30pm 16.1 9.6 10.2 68 3.1 WSW 35 57 19 31 - - 0.0
23/04:29pm 16.0 9.9 10.5 70 2.9 SW 33 57 18 31 - - 0.0
23/04:00pm 15.5 9.8 11.3 76 2.3 SW 32 43 17 23 - - 0.0
23/03:30pm 19.3 16.9 11.3 60 4.4 SSW 15 30 8 16 - - 0.0
23/03:00pm 19.1 18.4 11.4 61 4.2 SSW 6 9 3 5 - - 0.0
23/02:30pm 17.6 16.9 11.4 67 3.4 S 6 9 3 5 - - 0.0
23/02:00pm 18.5 17.7 9.8 57 4.6 SE 4 9 2 5 - - 0.0
23/01:30pm 18.6 17.0 10.2 58 4.5 ENE 9 15 5 8 - - 0.0
23/01:00pm 18.6 18.0 11.7 64 3.8 ENE 6 11 3 6 - - 0.0
23/12:30pm 17.9 17.4 12.1 69 3.2 NE 6 11 3 6 - - 0.0
23/12:00pm 17.5 16.4 12.0 70 3.0 E 9 13 5 7 - - 0.0
23/11:30am 17.3 16.6 12.0 71 2.9 E 7 13 4 7 - - 0.0
23/11:00am 17.6 17.1 12.5 72 2.8 SE 7 11 4 6 - - 0.0
23/10:30am 17.4 16.5 12.7 74 2.6 SSE 9 13 5 7 - - 0.0
23/10:00am 17.9 17.1 12.8 72 2.9 S 9 22 5 12 - - 0.0
23/09:30am 16.8 16.3 12.1 74 2.6 ESE 6 11 3 6 - - 0.0
23/09:00am 17.0 16.3 11.9 72 2.8 SSE 7 9 4 5 - - 0.0
23/08:30am 16.5 15.4 10.8 69 3.1 SSE 7 15 4 8 - - 0.0
23/08:00am 16.7 15.6 9.9 64 3.6 SE 6 9 3 5 - - 0.0
23/07:30am 16.3 14.0 9.0 62 3.8 SW 11 19 6 10 - - 0.0
23/07:00am 17.2 13.4 7.5 53 4.9 SW 17 28 9 15 - - 0.0
23/06:30am 19.1 14.1 4.8 39 6.9 NW 20 30 11 16 - - 0.0
23/06:00am 19.2 14.9 5.3 40 6.8 NW 17 26 9 14 - - 0.0
23/05:30am 17.1 14.6 6.6 50 5.2 N 9 15 5 8 - - 0.0
23/05:00am 15.9 13.1 7.1 56 4.4 NE 11 15 6 8 - - 0.0
23/04:30am 16.0 12.7 8.2 60 4.0 E 15 24 8 13 - - 0.0
23/04:00am 20.2 14.5 5.1 37 7.4 NW 24 32 13 17 - - 0.0
23/03:30am 19.4 13.9 5.8 41 6.7 NW 24 35 13 19 - - 0.0
23/03:00am 19.4 14.4 6.5 43 6.5 NW 22 30 12 16 - - 0.0
23/02:30am 19.4 14.1 6.8 44 6.4 NW 24 33 13 18 - - 0.0
23/02:00am 19.8 15.3 6.9 43 6.6 NW 20 30 11 16 - - 0.0
23/01:30am 19.8 16.6 6.9 43 6.6 NNW 13 24 7 13 - - 0.0
23/01:00am 19.6 15.5 7.7 46 6.1 NNW 19 28 10 15 - - 0.0
23/12:30am 19.5 15.2 7.9 47 6.0 NNW 20 35 11 19 - - 0.0
23/12:00am 19.6 14.3 8.3 48 5.9 N 26 39 14 21 - - 0.0
 
Date/Time
EST
Temp
°C
App
Temp
°C
Dew
Point
°C
Rel
Hum
%
Delta-T
°C
Wind Press
QNH
hPa
Press
MSL
hPa
Rain since
9am
mm
Dir  Spd
km/h
Gust
km/h
Spd
kts
Gust
kts
22/11:30pm 18.9 14.8 8.6 51 5.4 NNW 20 33 11 18 - - 0.0
22/11:00pm 17.8 15.4 8.6 55 4.8 NNW 11 22 6 12 - - 0.0
22/10:30pm 18.3 15.1 8.6 53 5.0 N 15 28 8 15 - - 0.0
22/10:00pm 18.8 15.7 8.7 52 5.3 N 15 22 8 12 - - 0.0
22/09:30pm 19.4 15.5 8.7 50 5.6 N 19 26 10 14 - - 0.0
22/09:00pm 19.7 15.6 8.7 49 5.8 N 20 28 11 15 - - 0.0
22/08:30pm 20.1 15.7 9.1 49 5.8 N 22 32 12 17 - - 0.0
22/08:00pm 19.0 15.9 10.3 57 4.7 N 17 24 9 13 - - 0.0
22/07:30pm 17.7 16.1 11.5 67 3.4 NNW 11 17 6 9 - - 0.0
22/07:00pm 17.9 16.8 11.9 68 3.3 NNW 9 13 5 7 - - 0.0
22/06:30pm 17.8 16.2 12.7 72 2.9 N 13 15 7 8 - - 0.0
22/06:00pm 17.8 16.7 13.1 74 2.7 NNE 11 17 6 9 - - 0.0
22/05:30pm 17.0 17.1 12.7 76 2.4 N 4 7 2 4 - - 0.0
22/05:00pm 17.4 17.4 12.3 72 2.8 WSW 4 6 2 3 - - 0.0
22/04:30pm 16.8 15.6 11.5 71 2.9 E 9 11 5 6 - - 0.0
22/04:00pm 16.5 14.9 11.4 72 2.8 ENE 11 15 6 8 - - 0.0
22/03:30pm 16.3 13.5 11.5 73 2.6 E 17 22 9 12 - - 0.0
22/03:00pm 16.6 14.2 11.5 72 2.8 E 15 20 8 11 - - 0.0
22/02:30pm 16.5 13.5 10.8 69 3.1 E 17 22 9 12 - - 0.0
22/02:00pm 15.9 12.6 10.9 72 2.7 E 19 24 10 13 - - 0.0
22/01:30pm 16.4 13.9 10.9 70 3.0 E 15 22 8 12 - - 0.0
22/01:00pm 15.8 13.2 10.6 71 2.8 E 15 20 8 11 - - 0.0
22/12:30pm 16.1 13.5 10.8 71 2.8 E 15 22 8 12 - - 0.0
22/12:00pm 15.9 13.4 11.1 73 2.6 E 15 20 8 11 - - 0.0
22/11:30am 15.7 12.9 11.3 75 2.4 E 17 22 9 12 - - 0.0
22/11:00am 15.7 13.2 11.1 74 2.5 E 15 20 8 11 - - 0.0
22/10:30am 15.8 14.0 10.8 72 2.7 ENE 11 19 6 10 - - 0.0
22/10:00am 16.1 14.5 10.2 68 3.1 NE 9 17 5 9 - - 0.0
22/09:30am 14.5 12.4 9.9 74 2.4 NNE 11 19 6 10 - - 0.0
22/09:00am 13.7 11.6 9.6 76 2.1 NNE 11 17 6 9 - - 0.0
22/08:30am 12.9 11.1 9.5 80 1.7 NNE 9 17 5 9 - - 0.0
22/08:00am 11.1 9.2 9.0 87 1.0 NNE 9 13 5 7 - - 0.0
22/07:30am 9.8 7.7 8.2 90 0.8 N 9 13 5 7 - - 0.0
22/07:00am 8.9 7.0 7.5 91 0.7 NW 7 11 4 6 - - 0.0
22/06:30am 9.0 7.1 7.5 90 0.7 NNW 7 11 4 6 - - 0.0
22/06:00am 8.7 6.8 7.5 92 0.6 N 7 9 4 5 - - 0.0
22/05:30am 8.4 5.6 7.0 91 0.7 N 11 15 6 8 - - 0.0
22/05:00am 8.9 6.3 7.7 92 0.6 NW 11 13 6 7 - - 0.0
22/04:30am 9.1 7.3 8.0 93 0.5 NW 7 9 4 5 - - 0.0
22/04:00am 8.8 6.9 7.7 93 0.5 N 7 9 4 5 - - 0.0
22/03:30am 9.6 7.9 8.4 92 0.6 N 7 9 4 5 - - 0.0
22/03:00am 9.7 8.2 8.3 91 0.7 N 6 7 3 4 - - 0.0
22/02:30am 9.9 8.3 8.2 89 0.8 NNW 6 6 3 3 - - 0.0
22/02:00am 10.0 8.9 8.3 89 0.8 N 4 6 2 3 - - 0.0
22/01:30am 9.9 8.3 8.2 89 0.8 NNW 6 7 3 4 - - 0.0
22/01:00am 10.0 8.3 8.4 90 0.8 N 7 11 4 6 - - 0.0
22/12:30am 10.1 8.4 8.4 89 0.8 N 7 9 4 5 - - 0.0
22/12:00am 10.4 8.9 8.3 87 1.0 NNW 6 6 3 3 - - 0.0
 
Date/Time
EST
Temp
°C
App
Temp
°C
Dew
Point
°C
Rel
Hum
%
Delta-T
°C
Wind Press
QNH
hPa
Press
MSL
hPa
Rain since
9am
mm
Dir  Spd
km/h
Gust
km/h
Spd
kts
Gust
kts
21/11:30pm 10.2 8.7 8.5 89 0.8 N 6 9 3 5 - - 0.0
21/11:00pm 10.4 8.3 8.3 87 1.0 N 9 11 5 6 - - 0.0
21/10:30pm 10.8 9.2 8.9 88 0.9 NNE 7 9 4 5 - - 0.0
21/10:00pm 11.3 10.4 9.2 87 1.1 W 4 6 2 3 - - 0.0
21/09:30pm 11.6 9.8 9.3 86 1.2 SW 9 15 5 8 - - 0.0
21/09:00pm 11.9 9.4 9.6 86 1.2 SW 13 24 7 13 - - 0.0
21/08:30pm 12.2 9.3 9.6 84 1.3 SW 15 24 8 13 - - 0.0

Other Formats:

Comma delimited format used in spreadsheet applications
http://www.bom.gov.au/fwo/IDV60801/IDV60801.94846.axf

JavaScript Object Notation format (JSON) in row-major order
http://www.bom.gov.au/fwo/IDV60801/IDV60801.94846.json